Hauptseite
METAR-TAF:

METAR-TAF

Flughäfen :

Flughafen Djerba

Djerba, Tunesien

Breite: 33-52N, Länge: 010-46E, Höhe: 3 m

Beobachtung

Neuester Wetterbericht von vor 30 Minuten, um 21:00 UTC
Temperatur 16°C
Luftfeuchtigkeit 82%
Luftdruck 1011 hPa
Sichtweite 10 km oder mehr
Leicht bewölkt in der Höhe von 2000 ft

METAR: DTTJ 182100Z /////KT 9999 FEW020 16/13 Q1011 NOSIG

Zeit: 22:30 (21:30 UTC)

Prognose

Neuester Wetterbericht von vor 4 Stunden und 8 Minuten, um 17:22 UTC
Gültige Prognose vom 18 um 18 UTC bis 19 um 18 UTC
Wind 10 kt aus West
Sichtweite 10 km oder mehr
Leicht bewölkt in der Höhe von 2000 ft
Wahrscheinlichkeit 30% :
Zeitweise
vom 19 um 02 UTC bis 19 um 12 UTC
Wind 15 kt aus Süd, Böen bis zu 25 kt

TAF: DTTJ 181722Z 1818/1918 28010KT 9999 FEW020 PROB30 TEMPO 1902/1912 19015G25KT

Wetterbeobachtungen und Prognosen von mehr als 4000 Flughäfen (METAR und TAF Bericht).

Die verfügbaren Stationen werden durch gelbe und rote Markierungen auf der Karte dargestellt.

Führen Sie die Maus auf sie, um den Namen der Station zu sehen.

Darauf klicken, um die Beobachtung von Wetterbeobachtungen und Prognosen zu sehen.

Um die Karte zu ändern : klicken Sie auf den grünen Tasten mit einem schwarzen Kreuz Zum Vergrößern, auf den grünen Button mit einem Gedankenstrich zu verkleinern, oder auf die grünen Pfeile für benachbarte Karten.


METAR-TAF: